Mechanicsville, Virginia
Current Conditions -  °F | °C
As of 1:54 PM on Tuesday 27 Jan 2015 (Local Time) from KOFP Reporting Station
Broken Clouds Broken Clouds  
Wind Chill: -2°   Ceiling: 5000
Heat Index:   Visibility: 10mi
Dew Point: -4°   Wind: 10mph
Humidity: 62%   Direction: 330°NNW
Pressure: 29.8"   Gusts: 18mph
Location:  37.61°N, 77.38°W
Report Text: KOFP 271854Z AUTO 33009G16KT 290V010 10SM SCT030 BKN050 02/M04 A2980 RMK AO2 SLP092 T00221044
Loading
Personal Weather Stations






























Interactive Weather Map New forecast layout! Learn more

10-Day Weather Forecast

Advertisements
Track Severe Weather on mobile